createdAt,value
2023-03-04T00:03:43.845Z,56.95
2023-03-04T00:10:45.514Z,55.80
2023-03-04T00:17:47.081Z,59.72
2023-03-04T00:24:48.740Z,58.78
2023-03-04T00:31:50.321Z,61.88
2023-03-04T00:38:51.939Z,35.88
2023-03-04T00:45:53.727Z,9.18
2023-03-04T00:52:55.498Z,10.48
2023-03-04T00:59:57.128Z,10.13
2023-03-04T01:06:59.114Z,5.45
2023-03-04T01:14:00.639Z,6.32
2023-03-04T01:21:02.205Z,7.97
2023-03-04T01:28:04.441Z,4.50
2023-03-04T01:35:06.308Z,5.75
2023-03-04T01:42:13.660Z,6.05
2023-03-04T01:49:15.726Z,6.85
2023-03-04T01:56:30.182Z,6.40
2023-03-04T02:03:31.765Z,6.38
2023-03-04T02:10:33.301Z,5.57
2023-03-04T02:17:34.888Z,5.82
2023-03-04T02:24:40.780Z,5.90
2023-03-04T02:31:47.186Z,5.15
2023-03-04T02:38:52.431Z,6.90
2023-03-04T02:45:54.206Z,3.95
2023-03-04T02:52:55.888Z,6.00
2023-03-04T02:59:57.502Z,4.70
2023-03-04T03:07:02.153Z,4.15
2023-03-04T03:14:05.481Z,5.60
2023-03-04T03:21:08.129Z,5.15
2023-03-04T03:28:09.776Z,7.57
2023-03-04T03:35:13.000Z,6.38
2023-03-04T03:42:15.758Z,5.50
2023-03-04T03:49:17.292Z,4.97
2023-03-04T03:56:18.839Z,3.92
2023-03-04T04:03:20.400Z,4.35
2023-03-04T04:10:22.097Z,4.68
2023-03-04T04:17:23.651Z,3.78
2023-03-04T04:24:25.306Z,3.95
2023-03-04T04:31:26.863Z,3.85
2023-03-04T04:38:28.423Z,3.63
2023-03-04T04:45:30.032Z,4.75
2023-03-04T04:52:31.554Z,3.83
2023-03-04T04:59:33.144Z,3.35
2023-03-04T05:06:34.733Z,3.20
2023-03-04T05:13:36.362Z,3.65
2023-03-04T05:20:37.904Z,3.60
2023-03-04T05:27:39.468Z,4.32
2023-03-04T05:34:41.024Z,4.43
2023-03-04T05:41:42.565Z,3.83
2023-03-04T05:48:44.718Z,4.45
2023-03-04T05:55:47.408Z,5.97
2023-03-04T06:02:49.025Z,3.95
2023-03-04T06:09:50.784Z,4.97
2023-03-04T06:16:52.329Z,4.68
2023-03-04T06:23:53.867Z,4.65
2023-03-04T06:30:55.905Z,6.03
2023-03-04T06:37:57.506Z,5.63
2023-03-04T06:44:59.031Z,6.03
2023-03-04T06:52:00.637Z,7.78
2023-03-04T06:59:02.227Z,4.50
2023-03-04T07:06:03.845Z,4.00
2023-03-04T07:13:05.365Z,5.22
2023-03-04T07:20:07.230Z,3.63
2023-03-04T07:27:08.788Z,5.50
2023-03-04T07:34:11.959Z,4.60
2023-03-04T07:41:13.578Z,6.03
2023-03-04T07:48:15.162Z,9.45
2023-03-04T07:55:17.070Z,5.63
2023-03-04T08:02:18.663Z,4.65
2023-03-04T08:09:20.300Z,4.93
2023-03-04T08:16:22.781Z,3.28
2023-03-04T08:23:24.568Z,3.38
2023-03-04T08:30:26.168Z,4.30
2023-03-04T08:37:29.079Z,3.53
2023-03-04T08:44:30.651Z,3.50
2023-03-04T08:51:32.303Z,3.80
2023-03-04T08:58:33.931Z,4.18
2023-03-04T09:05:36.239Z,5.15
2023-03-04T09:12:37.880Z,5.00
2023-03-04T09:19:39.591Z,3.83
2023-03-04T09:26:41.178Z,3.13
2023-03-04T09:33:43.147Z,4.40
2023-03-04T09:40:46.632Z,3.05
2023-03-04T09:47:52.441Z,3.53
2023-03-04T09:55:06.354Z,3.10
2023-03-04T10:02:17.229Z,2.72
2023-03-04T10:09:44.170Z,3.63
2023-03-04T10:16:49.641Z,3.42
2023-03-04T10:23:51.293Z,3.70
2023-03-04T10:31:02.477Z,3.50
2023-03-04T10:38:04.111Z,2.85
2023-03-04T10:45:06.959Z,3.13
2023-03-04T10:52:28.640Z,3.42
2023-03-04T11:00:01.381Z,3.90
2023-03-04T11:07:09.627Z,3.28
2023-03-04T11:14:35.340Z,3.80
2023-03-04T11:21:40.277Z,4.35
2023-03-04T11:28:44.974Z,4.78
2023-03-04T11:35:58.903Z,4.22
2023-03-04T11:43:04.493Z,3.40
2023-03-04T11:50:38.828Z,2.85
2023-03-04T11:58:08.240Z,2.95
2023-03-04T12:05:15.978Z,2.63
2023-03-04T12:12:26.678Z,2.33
2023-03-04T12:19:52.669Z,3.35
2023-03-04T12:27:12.627Z,3.55
2023-03-04T12:34:45.116Z,3.47
2023-03-04T12:42:08.625Z,3.15
2023-03-04T12:49:34.561Z,3.15
2023-03-04T12:57:12.575Z,2.95
2023-03-04T13:04:34.663Z,2.30
2023-03-04T13:11:49.412Z,3.55
2023-03-04T13:18:51.035Z,3.67
2023-03-04T13:25:55.633Z,3.67
2023-03-04T13:33:09.234Z,2.67
2023-03-04T13:40:23.370Z,3.55
2023-03-04T13:47:32.706Z,4.05
2023-03-04T13:54:34.288Z,3.10
2023-03-04T14:01:36.695Z,3.85
2023-03-04T14:08:38.264Z,4.28
2023-03-04T14:15:39.877Z,4.97
2023-03-04T14:22:41.647Z,3.45
2023-03-04T14:29:43.229Z,4.70
2023-03-04T14:36:45.139Z,5.05
2023-03-04T14:43:51.492Z,4.47
2023-03-04T14:50:53.971Z,5.35
2023-03-04T14:58:07.434Z,5.93
2023-03-04T15:05:17.049Z,6.50
2023-03-04T15:12:27.688Z,7.93
2023-03-04T15:19:29.533Z,7.65
2023-03-04T15:26:32.610Z,7.20
2023-03-04T15:33:34.254Z,6.10
2023-03-04T15:40:40.161Z,9.70
2023-03-04T15:47:41.800Z,8.35
2023-03-04T15:54:44.140Z,8.13
2023-03-04T16:01:46.605Z,8.30
2023-03-04T16:08:48.332Z,7.63
2023-03-04T16:15:50.745Z,9.05
2023-03-04T16:22:54.264Z,12.15
2023-03-04T16:29:55.817Z,10.13
2023-03-04T16:36:57.528Z,8.25
2023-03-04T16:43:59.975Z,7.18
2023-03-04T16:51:06.817Z,9.07
2023-03-04T16:58:09.437Z,4.20
2023-03-04T17:05:15.340Z,5.38
2023-03-04T17:12:16.964Z,4.50
2023-03-04T17:19:18.524Z,3.80
2023-03-04T17:26:22.453Z,2.92
2023-03-04T17:33:24.111Z,3.45
2023-03-04T17:40:25.677Z,3.50
2023-03-04T17:47:27.248Z,3.50
2023-03-04T17:54:28.852Z,3.88
2023-03-04T18:01:30.424Z,4.82
2023-03-04T18:08:31.988Z,3.92
2023-03-04T18:15:33.533Z,2.97
2023-03-04T18:22:35.162Z,9.70
2023-03-04T18:29:36.845Z,5.35
2023-03-04T18:36:38.486Z,3.03
2023-03-04T18:43:40.069Z,3.15
2023-03-04T18:50:41.858Z,3.83
2023-03-04T18:57:45.877Z,3.45
2023-03-04T19:04:48.432Z,2.55
2023-03-04T19:11:50.191Z,2.80
2023-03-04T19:18:51.870Z,2.72
2023-03-04T19:25:53.678Z,3.05
2023-03-04T19:32:55.338Z,2.75
2023-03-04T19:39:56.968Z,2.30
2023-03-04T19:46:58.679Z,6.32
2023-03-04T19:54:00.350Z,2.95
2023-03-04T20:01:01.984Z,3.15
2023-03-04T20:08:03.836Z,2.55
2023-03-04T20:15:07.346Z,2.90
2023-03-04T20:22:08.921Z,2.78
2023-03-04T20:29:10.525Z,3.17
2023-03-04T20:36:12.147Z,9.15
2023-03-04T20:43:13.751Z,2.33
2023-03-04T20:50:16.542Z,2.45
2023-03-04T20:57:18.144Z,2.30
2023-03-04T21:04:20.152Z,2.22
2023-03-04T21:11:23.504Z,2.42
2023-03-04T21:18:26.302Z,2.25
2023-03-04T21:25:28.625Z,2.03
2023-03-04T21:32:30.257Z,2.60
2023-03-04T21:39:32.094Z,2.67
2023-03-04T21:46:35.377Z,2.10
2023-03-04T21:53:37.182Z,1.90
2023-03-04T22:00:38.991Z,2.10
2023-03-04T22:07:40.735Z,2.40
2023-03-04T22:14:42.324Z,2.22
2023-03-04T22:21:43.943Z,2.78
2023-03-04T22:28:45.930Z,3.20
2023-03-04T22:35:47.575Z,3.03
2023-03-04T22:42:49.552Z,3.17
2023-03-04T22:49:51.272Z,2.70
2023-03-04T22:56:52.890Z,3.17
2023-03-04T23:03:54.510Z,3.38
2023-03-04T23:10:56.127Z,3.20
2023-03-04T23:17:57.836Z,3.20
2023-03-04T23:24:59.526Z,3.08
2023-03-04T23:32:01.219Z,3.15
2023-03-04T23:39:03.106Z,2.97
2023-03-04T23:46:04.880Z,3.22
2023-03-04T23:53:06.458Z,3.40
